sensor_id;sensor_type;location;lat;lon;timestamp;temperature;humidity
47174;DHT22;36730;49.036;9.094;2023-01-28T00:01:24;24.00;46.30
47174;DHT22;36730;49.036;9.094;2023-01-28T00:03:50;24.00;46.00
47174;DHT22;36730;49.036;9.094;2023-01-28T00:06:16;24.00;46.40
47174;DHT22;36730;49.036;9.094;2023-01-28T00:08:43;24.00;46.30
47174;DHT22;36730;49.036;9.094;2023-01-28T00:11:09;24.10;46.40
47174;DHT22;36730;49.036;9.094;2023-01-28T00:13:35;24.00;46.30
47174;DHT22;36730;49.036;9.094;2023-01-28T00:16:02;24.00;46.30
47174;DHT22;36730;49.036;9.094;2023-01-28T00:18:29;24.00;46.00
47174;DHT22;36730;49.036;9.094;2023-01-28T00:20:58;24.00;46.00
47174;DHT22;36730;49.036;9.094;2023-01-28T00:23:24;24.00;46.10
47174;DHT22;36730;49.036;9.094;2023-01-28T00:25:50;24.00;46.20
47174;DHT22;36730;49.036;9.094;2023-01-28T00:28:15;24.00;46.20
47174;DHT22;36730;49.036;9.094;2023-01-28T00:30:41;24.00;46.10
47174;DHT22;36730;49.036;9.094;2023-01-28T00:33:06;24.00;46.10
47174;DHT22;36730;49.036;9.094;2023-01-28T00:35:31;23.90;46.10
47174;DHT22;36730;49.036;9.094;2023-01-28T00:37:57;23.90;45.70
47174;DHT22;36730;49.036;9.094;2023-01-28T00:40:24;23.90;45.90
47174;DHT22;36730;49.036;9.094;2023-01-28T00:42:49;24.00;46.00
47174;DHT22;36730;49.036;9.094;2023-01-28T00:45:14;24.00;46.10
47174;DHT22;36730;49.036;9.094;2023-01-28T00:47:40;23.90;45.90
47174;DHT22;36730;49.036;9.094;2023-01-28T00:50:05;24.00;46.00
47174;DHT22;36730;49.036;9.094;2023-01-28T00:52:31;23.90;45.70
47174;DHT22;36730;49.036;9.094;2023-01-28T00:54:57;23.90;45.80
47174;DHT22;36730;49.036;9.094;2023-01-28T00:57:22;23.90;45.60
47174;DHT22;36730;49.036;9.094;2023-01-28T00:59:48;24.00;45.90
47174;DHT22;36730;49.036;9.094;2023-01-28T01:02:13;23.90;45.70
47174;DHT22;36730;49.036;9.094;2023-01-28T01:04:39;23.90;45.70
47174;DHT22;36730;49.036;9.094;2023-01-28T01:07:05;23.90;45.90
47174;DHT22;36730;49.036;9.094;2023-01-28T01:09:31;23.90;45.60
47174;DHT22;36730;49.036;9.094;2023-01-28T01:11:56;23.90;45.60
47174;DHT22;36730;49.036;9.094;2023-01-28T01:14:22;23.90;45.50
47174;DHT22;36730;49.036;9.094;2023-01-28T01:16:47;23.90;45.70
47174;DHT22;36730;49.036;9.094;2023-01-28T01:19:13;23.90;45.80
47174;DHT22;36730;49.036;9.094;2023-01-28T01:21:38;23.90;45.80
47174;DHT22;36730;49.036;9.094;2023-01-28T01:24:03;23.90;45.60
47174;DHT22;36730;49.036;9.094;2023-01-28T01:26:29;23.90;45.50
47174;DHT22;36730;49.036;9.094;2023-01-28T01:28:54;23.90;45.40
47174;DHT22;36730;49.036;9.094;2023-01-28T01:31:20;23.90;45.30
47174;DHT22;36730;49.036;9.094;2023-01-28T01:33:46;23.90;45.50
47174;DHT22;36730;49.036;9.094;2023-01-28T01:36:13;23.80;45.60
47174;DHT22;36730;49.036;9.094;2023-01-28T01:38:38;23.80;45.50
47174;DHT22;36730;49.036;9.094;2023-01-28T01:41:05;23.80;45.50
47174;DHT22;36730;49.036;9.094;2023-01-28T01:43:47;23.80;45.60
47174;DHT22;36730;49.036;9.094;2023-01-28T01:46:13;23.80;45.30
47174;DHT22;36730;49.036;9.094;2023-01-28T01:48:39;23.80;45.20
47174;DHT22;36730;49.036;9.094;2023-01-28T01:51:11;23.80;45.40
47174;DHT22;36730;49.036;9.094;2023-01-28T01:53:39;23.80;45.40
47174;DHT22;36730;49.036;9.094;2023-01-28T01:56:05;23.80;45.90
47174;DHT22;36730;49.036;9.094;2023-01-28T01:58:34;23.80;45.40
47174;DHT22;36730;49.036;9.094;2023-01-28T02:01:01;23.80;45.20
47174;DHT22;36730;49.036;9.094;2023-01-28T02:04:14;23.80;45.30
47174;DHT22;36730;49.036;9.094;2023-01-28T02:06:12;23.80;45.20
47174;DHT22;36730;49.036;9.094;2023-01-28T02:08:38;23.80;45.10
47174;DHT22;36730;49.036;9.094;2023-01-28T02:11:04;23.80;45.20
47174;DHT22;36730;49.036;9.094;2023-01-28T02:13:32;23.80;45.30
47174;DHT22;36730;49.036;9.094;2023-01-28T02:15:58;23.80;45.20
47174;DHT22;36730;49.036;9.094;2023-01-28T02:18:25;23.80;45.30
47174;DHT22;36730;49.036;9.094;2023-01-28T02:23:42;23.70;45.00
47174;DHT22;36730;49.036;9.094;2023-01-28T02:31:37;23.80;45.10
47174;DHT22;36730;49.036;9.094;2023-01-28T02:34:11;23.80;45.10
47174;DHT22;36730;49.036;9.094;2023-01-28T02:39:06;23.80;45.00
47174;DHT22;36730;49.036;9.094;2023-01-28T02:41:36;23.80;44.90
47174;DHT22;36730;49.036;9.094;2023-01-28T02:44:04;23.80;45.00
47174;DHT22;36730;49.036;9.094;2023-01-28T02:49:15;23.70;44.90
47174;DHT22;36730;49.036;9.094;2023-01-28T02:57:14;23.70;44.80
47174;DHT22;36730;49.036;9.094;2023-01-28T03:04:37;23.80;45.00
47174;DHT22;36730;49.036;9.094;2023-01-28T03:07:04;23.70;44.90
47174;DHT22;36730;49.036;9.094;2023-01-28T03:09:31;23.70;44.80
47174;DHT22;36730;49.036;9.094;2023-01-28T03:11:58;23.70;44.80
47174;DHT22;36730;49.036;9.094;2023-01-28T03:14:47;23.70;44.60
47174;DHT22;36730;49.036;9.094;2023-01-28T03:17:38;23.70;44.70
47174;DHT22;36730;49.036;9.094;2023-01-28T03:20:26;23.70;44.80
47174;DHT22;36730;49.036;9.094;2023-01-28T03:23:13;23.70;44.90
47174;DHT22;36730;49.036;9.094;2023-01-28T03:26:00;23.70;44.90
47174;DHT22;36730;49.036;9.094;2023-01-28T03:28:44;23.60;44.70
47174;DHT22;36730;49.036;9.094;2023-01-28T03:31:29;23.70;44.80
47174;DHT22;36730;49.036;9.094;2023-01-28T03:34:13;23.70;44.70
47174;DHT22;36730;49.036;9.094;2023-01-28T03:36:57;23.70;44.80
47174;DHT22;36730;49.036;9.094;2023-01-28T03:39:25;23.70;44.70
47174;DHT22;36730;49.036;9.094;2023-01-28T03:44:31;23.70;44.70
47174;DHT22;36730;49.036;9.094;2023-01-28T03:47:16;23.70;44.60
47174;DHT22;36730;49.036;9.094;2023-01-28T03:49:42;23.70;44.60
47174;DHT22;36730;49.036;9.094;2023-01-28T03:52:10;23.70;44.60
47174;DHT22;36730;49.036;9.094;2023-01-28T03:54:36;23.60;44.60
47174;DHT22;36730;49.036;9.094;2023-01-28T03:57:02;23.60;44.70
47174;DHT22;36730;49.036;9.094;2023-01-28T03:59:27;23.70;44.80
47174;DHT22;36730;49.036;9.094;2023-01-28T04:01:53;23.60;44.60
47174;DHT22;36730;49.036;9.094;2023-01-28T04:04:19;23.70;44.60
47174;DHT22;36730;49.036;9.094;2023-01-28T04:06:51;23.60;44.50
47174;DHT22;36730;49.036;9.094;2023-01-28T04:09:17;23.70;44.60
47174;DHT22;36730;49.036;9.094;2023-01-28T04:11:43;23.70;44.60
47174;DHT22;36730;49.036;9.094;2023-01-28T04:14:08;23.70;44.60
47174;DHT22;36730;49.036;9.094;2023-01-28T04:16:34;23.70;44.70
47174;DHT22;36730;49.036;9.094;2023-01-28T04:18:59;23.70;44.90
47174;DHT22;36730;49.036;9.094;2023-01-28T04:21:25;23.70;44.60
47174;DHT22;36730;49.036;9.094;2023-01-28T04:23:50;23.70;44.40
47174;DHT22;36730;49.036;9.094;2023-01-28T04:26:16;23.80;44.60
47174;DHT22;36730;49.036;9.094;2023-01-28T04:28:42;23.70;44.60
47174;DHT22;36730;49.036;9.094;2023-01-28T04:31:07;23.70;44.80
47174;DHT22;36730;49.036;9.094;2023-01-28T04:33:33;23.80;44.80
47174;DHT22;36730;49.036;9.094;2023-01-28T04:35:58;23.80;45.20
47174;DHT22;36730;49.036;9.094;2023-01-28T04:38:23;23.80;45.10
47174;DHT22;36730;49.036;9.094;2023-01-28T04:40:52;23.80;45.10
47174;DHT22;36730;49.036;9.094;2023-01-28T04:43:18;23.90;45.00
47174;DHT22;36730;49.036;9.094;2023-01-28T04:45:44;24.00;45.40
47174;DHT22;36730;49.036;9.094;2023-01-28T04:48:10;24.00;45.80
47174;DHT22;36730;49.036;9.094;2023-01-28T04:50:35;24.00;45.30
47174;DHT22;36730;49.036;9.094;2023-01-28T04:53:01;24.00;45.20
47174;DHT22;36730;49.036;9.094;2023-01-28T04:55:26;24.00;45.60
47174;DHT22;36730;49.036;9.094;2023-01-28T04:57:52;24.00;45.20
47174;DHT22;36730;49.036;9.094;2023-01-28T05:00:17;24.10;45.30
47174;DHT22;36730;49.036;9.094;2023-01-28T05:02:43;24.10;45.30
47174;DHT22;36730;49.036;9.094;2023-01-28T05:05:08;24.10;45.40
47174;DHT22;36730;49.036;9.094;2023-01-28T05:07:34;24.10;45.00
47174;DHT22;36730;49.036;9.094;2023-01-28T05:10:00;24.20;45.90
47174;DHT22;36730;49.036;9.094;2023-01-28T05:12:25;24.20;45.20
47174;DHT22;36730;49.036;9.094;2023-01-28T05:14:51;24.20;46.20
47174;DHT22;36730;49.036;9.094;2023-01-28T05:17:16;24.20;45.40
47174;DHT22;36730;49.036;9.094;2023-01-28T05:19:42;24.20;45.80
47174;DHT22;36730;49.036;9.094;2023-01-28T05:22:08;24.20;45.20
47174;DHT22;36730;49.036;9.094;2023-01-28T05:24:33;24.30;45.50
47174;DHT22;36730;49.036;9.094;2023-01-28T05:26:59;24.30;46.00
47174;DHT22;36730;49.036;9.094;2023-01-28T05:29:24;24.30;45.60
47174;DHT22;36730;49.036;9.094;2023-01-28T05:31:50;24.30;45.90
47174;DHT22;36730;49.036;9.094;2023-01-28T05:34:15;24.30;46.50
47174;DHT22;36730;49.036;9.094;2023-01-28T05:36:40;24.30;45.80
47174;DHT22;36730;49.036;9.094;2023-01-28T05:39:06;24.40;46.30
47174;DHT22;36730;49.036;9.094;2023-01-28T05:41:32;24.40;46.80
47174;DHT22;36730;49.036;9.094;2023-01-28T05:43:57;24.40;46.60
47174;DHT22;36730;49.036;9.094;2023-01-28T05:46:23;24.40;46.20
47174;DHT22;36730;49.036;9.094;2023-01-28T05:48:49;24.40;46.60
47174;DHT22;36730;49.036;9.094;2023-01-28T05:51:15;24.40;46.60
47174;DHT22;36730;49.036;9.094;2023-01-28T05:53:41;24.40;47.50
47174;DHT22;36730;49.036;9.094;2023-01-28T05:56:06;24.40;46.30
47174;DHT22;36730;49.036;9.094;2023-01-28T05:58:32;24.40;46.30
47174;DHT22;36730;49.036;9.094;2023-01-28T06:00:57;24.50;47.10
47174;DHT22;36730;49.036;9.094;2023-01-28T06:03:23;24.50;47.00
47174;DHT22;36730;49.036;9.094;2023-01-28T06:05:48;24.60;47.20
47174;DHT22;36730;49.036;9.094;2023-01-28T06:08:14;24.60;47.50
47174;DHT22;36730;49.036;9.094;2023-01-28T06:10:39;24.60;47.50
47174;DHT22;36730;49.036;9.094;2023-01-28T06:13:05;24.60;47.10
47174;DHT22;36730;49.036;9.094;2023-01-28T06:15:31;24.60;47.60
47174;DHT22;36730;49.036;9.094;2023-01-28T06:17:56;24.70;48.10
47174;DHT22;36730;49.036;9.094;2023-01-28T06:20:22;24.70;48.00
47174;DHT22;36730;49.036;9.094;2023-01-28T06:22:49;24.70;47.60
47174;DHT22;36730;49.036;9.094;2023-01-28T06:25:14;24.70;48.10
47174;DHT22;36730;49.036;9.094;2023-01-28T06:27:40;24.70;47.40
47174;DHT22;36730;49.036;9.094;2023-01-28T06:30:05;24.80;47.50
47174;DHT22;36730;49.036;9.094;2023-01-28T06:32:31;24.80;47.30
47174;DHT22;36730;49.036;9.094;2023-01-28T06:34:58;24.80;50.20
47174;DHT22;36730;49.036;9.094;2023-01-28T06:37:23;24.80;48.40
47174;DHT22;36730;49.036;9.094;2023-01-28T06:39:49;24.90;48.30
47174;DHT22;36730;49.036;9.094;2023-01-28T06:42:14;24.90;48.30
47174;DHT22;36730;49.036;9.094;2023-01-28T06:44:40;24.90;48.30
47174;DHT22;36730;49.036;9.094;2023-01-28T06:47:05;24.90;49.50
47174;DHT22;36730;49.036;9.094;2023-01-28T06:49:31;25.00;48.80
47174;DHT22;36730;49.036;9.094;2023-01-28T06:51:57;24.90;48.70
47174;DHT22;36730;49.036;9.094;2023-01-28T06:54:22;25.00;48.80
47174;DHT22;36730;49.036;9.094;2023-01-28T06:56:48;25.00;47.90
47174;DHT22;36730;49.036;9.094;2023-01-28T06:59:13;25.00;48.10
47174;DHT22;36730;49.036;9.094;2023-01-28T07:01:39;25.10;47.60
47174;DHT22;36730;49.036;9.094;2023-01-28T07:04:04;25.10;48.60
47174;DHT22;36730;49.036;9.094;2023-01-28T07:06:29;25.10;47.50
47174;DHT22;36730;49.036;9.094;2023-01-28T07:08:55;25.10;47.60
47174;DHT22;36730;49.036;9.094;2023-01-28T07:11:20;25.10;47.60
47174;DHT22;36730;49.036;9.094;2023-01-28T07:13:46;25.10;47.80
47174;DHT22;36730;49.036;9.094;2023-01-28T07:16:12;25.10;48.10
47174;DHT22;36730;49.036;9.094;2023-01-28T07:18:37;25.10;47.50
47174;DHT22;36730;49.036;9.094;2023-01-28T07:21:03;25.10;48.70
47174;DHT22;36730;49.036;9.094;2023-01-28T07:23:28;25.10;49.10
47174;DHT22;36730;49.036;9.094;2023-01-28T07:25:54;25.10;48.80
47174;DHT22;36730;49.036;9.094;2023-01-28T07:28:19;25.10;49.20
47174;DHT22;36730;49.036;9.094;2023-01-28T07:30:48;25.10;49.00
47174;DHT22;36730;49.036;9.094;2023-01-28T07:33:13;25.10;49.80
47174;DHT22;36730;49.036;9.094;2023-01-28T07:35:39;25.10;48.40
47174;DHT22;36730;49.036;9.094;2023-01-28T07:38:04;25.10;48.70
47174;DHT22;36730;49.036;9.094;2023-01-28T07:40:30;25.10;48.10
47174;DHT22;36730;49.036;9.094;2023-01-28T07:42:55;25.20;48.50
47174;DHT22;36730;49.036;9.094;2023-01-28T07:45:22;25.20;48.60
47174;DHT22;36730;49.036;9.094;2023-01-28T07:47:54;25.20;49.00
47174;DHT22;36730;49.036;9.094;2023-01-28T07:50:20;25.20;49.30
47174;DHT22;36730;49.036;9.094;2023-01-28T07:52:46;25.30;49.30
47174;DHT22;36730;49.036;9.094;2023-01-28T07:55:11;25.30;50.50
47174;DHT22;36730;49.036;9.094;2023-01-28T07:57:47;25.30;49.90
47174;DHT22;36730;49.036;9.094;2023-01-28T08:00:13;25.30;49.50
47174;DHT22;36730;49.036;9.094;2023-01-28T08:02:38;25.30;49.60
47174;DHT22;36730;49.036;9.094;2023-01-28T08:05:04;25.30;50.00
47174;DHT22;36730;49.036;9.094;2023-01-28T08:07:30;25.30;49.70
47174;DHT22;36730;49.036;9.094;2023-01-28T08:09:55;25.30;49.90
47174;DHT22;36730;49.036;9.094;2023-01-28T08:12:20;25.30;49.80
47174;DHT22;36730;49.036;9.094;2023-01-28T08:14:46;25.30;51.40
47174;DHT22;36730;49.036;9.094;2023-01-28T08:17:11;25.30;50.00
47174;DHT22;36730;49.036;9.094;2023-01-28T08:19:37;25.30;50.20
47174;DHT22;36730;49.036;9.094;2023-01-28T08:22:02;25.40;49.90
47174;DHT22;36730;49.036;9.094;2023-01-28T08:24:28;25.40;49.20
47174;DHT22;36730;49.036;9.094;2023-01-28T08:26:53;25.40;50.10
47174;DHT22;36730;49.036;9.094;2023-01-28T08:29:19;25.40;49.20
47174;DHT22;36730;49.036;9.094;2023-01-28T08:31:44;25.40;49.20
47174;DHT22;36730;49.036;9.094;2023-01-28T08:34:10;25.40;54.40
47174;DHT22;36730;49.036;9.094;2023-01-28T08:36:35;25.40;50.20
47174;DHT22;36730;49.036;9.094;2023-01-28T08:39:01;25.40;50.40
47174;DHT22;36730;49.036;9.094;2023-01-28T08:41:26;25.40;50.50
47174;DHT22;36730;49.036;9.094;2023-01-28T08:43:51;25.40;50.50
47174;DHT22;36730;49.036;9.094;2023-01-28T08:46:17;25.40;50.30
47174;DHT22;36730;49.036;9.094;2023-01-28T08:48:42;25.40;50.00
47174;DHT22;36730;49.036;9.094;2023-01-28T08:51:08;25.40;49.40
47174;DHT22;36730;49.036;9.094;2023-01-28T08:53:34;25.50;49.80
47174;DHT22;36730;49.036;9.094;2023-01-28T08:55:59;25.50;51.20
47174;DHT22;36730;49.036;9.094;2023-01-28T08:58:25;25.50;49.00
47174;DHT22;36730;49.036;9.094;2023-01-28T09:00:50;25.60;49.90
47174;DHT22;36730;49.036;9.094;2023-01-28T09:03:16;25.50;49.70
47174;DHT22;36730;49.036;9.094;2023-01-28T09:05:41;25.50;49.50
47174;DHT22;36730;49.036;9.094;2023-01-28T09:08:09;25.60;49.60
47174;DHT22;36730;49.036;9.094;2023-01-28T09:10:35;25.60;49.30
47174;DHT22;36730;49.036;9.094;2023-01-28T09:13:08;25.50;49.70
47174;DHT22;36730;49.036;9.094;2023-01-28T09:15:35;25.50;49.10
47174;DHT22;36730;49.036;9.094;2023-01-28T09:18:00;25.60;49.90
47174;DHT22;36730;49.036;9.094;2023-01-28T09:20:26;25.50;50.40
47174;DHT22;36730;49.036;9.094;2023-01-28T09:22:52;25.50;50.60
47174;DHT22;36730;49.036;9.094;2023-01-28T09:25:17;25.60;51.40
47174;DHT22;36730;49.036;9.094;2023-01-28T09:27:42;25.60;50.00
47174;DHT22;36730;49.036;9.094;2023-01-28T09:30:08;25.60;50.70
47174;DHT22;36730;49.036;9.094;2023-01-28T09:32:34;25.60;50.40
47174;DHT22;36730;49.036;9.094;2023-01-28T09:35:00;25.60;50.30
47174;DHT22;36730;49.036;9.094;2023-01-28T09:37:25;25.60;50.30
47174;DHT22;36730;49.036;9.094;2023-01-28T09:39:51;25.60;51.50
47174;DHT22;36730;49.036;9.094;2023-01-28T09:42:38;25.60;50.40
47174;DHT22;36730;49.036;9.094;2023-01-28T09:45:51;25.60;50.20
47174;DHT22;36730;49.036;9.094;2023-01-28T09:47:58;25.60;50.60
47174;DHT22;36730;49.036;9.094;2023-01-28T09:50:37;25.60;51.50
47174;DHT22;36730;49.036;9.094;2023-01-28T09:53:11;25.60;50.80
47174;DHT22;36730;49.036;9.094;2023-01-28T09:55:42;25.50;51.00
47174;DHT22;36730;49.036;9.094;2023-01-28T09:58:12;25.60;52.40
47174;DHT22;36730;49.036;9.094;2023-01-28T10:01:04;25.60;50.50
47174;DHT22;36730;49.036;9.094;2023-01-28T10:03:39;25.70;50.50
47174;DHT22;36730;49.036;9.094;2023-01-28T10:09:12;25.70;49.80
47174;DHT22;36730;49.036;9.094;2023-01-28T10:11:49;25.70;49.60
47174;DHT22;36730;49.036;9.094;2023-01-28T10:21:59;25.80;50.10
47174;DHT22;36730;49.036;9.094;2023-01-28T10:24:28;25.80;51.50
47174;DHT22;36730;49.036;9.094;2023-01-28T10:26:56;25.80;50.00
47174;DHT22;36730;49.036;9.094;2023-01-28T10:29:22;25.80;50.40
47174;DHT22;36730;49.036;9.094;2023-01-28T10:31:58;25.70;50.80
47174;DHT22;36730;49.036;9.094;2023-01-28T10:34:23;25.70;51.90
47174;DHT22;36730;49.036;9.094;2023-01-28T10:36:49;25.70;51.10
47174;DHT22;36730;49.036;9.094;2023-01-28T10:39:16;25.70;50.90
47174;DHT22;36730;49.036;9.094;2023-01-28T10:41:42;25.80;50.60
47174;DHT22;36730;49.036;9.094;2023-01-28T10:44:18;25.80;52.60
47174;DHT22;36730;49.036;9.094;2023-01-28T10:46:46;25.80;50.50
47174;DHT22;36730;49.036;9.094;2023-01-28T10:51:40;25.80;50.40
47174;DHT22;36730;49.036;9.094;2023-01-28T10:54:19;25.80;52.50
47174;DHT22;36730;49.036;9.094;2023-01-28T10:56:46;25.80;51.20
47174;DHT22;36730;49.036;9.094;2023-01-28T10:59:19;25.80;51.40
47174;DHT22;36730;49.036;9.094;2023-01-28T11:04:26;25.80;51.20
47174;DHT22;36730;49.036;9.094;2023-01-28T11:07:37;25.80;51.30
47174;DHT22;36730;49.036;9.094;2023-01-28T11:09:38;25.80;50.00
47174;DHT22;36730;49.036;9.094;2023-01-28T11:12:09;25.80;50.00
47174;DHT22;36730;49.036;9.094;2023-01-28T11:14:35;25.80;50.00
47174;DHT22;36730;49.036;9.094;2023-01-28T11:17:01;25.80;50.90
47174;DHT22;36730;49.036;9.094;2023-01-28T11:19:28;25.80;49.70
47174;DHT22;36730;49.036;9.094;2023-01-28T11:21:55;25.80;49.70
47174;DHT22;36730;49.036;9.094;2023-01-28T11:24:22;25.90;50.10
47174;DHT22;36730;49.036;9.094;2023-01-28T11:26:51;25.80;49.20
47174;DHT22;36730;49.036;9.094;2023-01-28T11:29:20;25.80;49.10
47174;DHT22;36730;49.036;9.094;2023-01-28T11:31:46;25.90;49.10
47174;DHT22;36730;49.036;9.094;2023-01-28T11:34:13;25.90;49.40
47174;DHT22;36730;49.036;9.094;2023-01-28T11:36:48;25.90;49.10
47174;DHT22;36730;49.036;9.094;2023-01-28T11:39:24;25.80;49.00
47174;DHT22;36730;49.036;9.094;2023-01-28T11:41:51;25.90;48.80
47174;DHT22;36730;49.036;9.094;2023-01-28T11:44:19;25.90;48.60
47174;DHT22;36730;49.036;9.094;2023-01-28T12:04:17;25.70;48.70
47174;DHT22;36730;49.036;9.094;2023-01-28T12:09:28;25.70;49.00
47174;DHT22;36730;49.036;9.094;2023-01-28T12:19:54;25.50;49.00
47174;DHT22;36730;49.036;9.094;2023-01-28T12:22:32;25.50;49.10
47174;DHT22;36730;49.036;9.094;2023-01-28T12:25:11;25.50;48.90
47174;DHT22;36730;49.036;9.094;2023-01-28T12:27:46;25.50;49.00
47174;DHT22;36730;49.036;9.094;2023-01-28T12:33:07;25.40;48.90
47174;DHT22;36730;49.036;9.094;2023-01-28T12:35:46;25.40;49.10
47174;DHT22;36730;49.036;9.094;2023-01-28T12:38:32;25.40;49.20
47174;DHT22;36730;49.036;9.094;2023-01-28T12:45:56;25.30;49.00
47174;DHT22;36730;49.036;9.094;2023-01-28T12:48:26;25.20;49.00
47174;DHT22;36730;49.036;9.094;2023-01-28T12:50:58;25.20;49.00
47174;DHT22;36730;49.036;9.094;2023-01-28T12:53:31;25.20;49.10
47174;DHT22;36730;49.036;9.094;2023-01-28T12:56:02;25.20;49.00
47174;DHT22;36730;49.036;9.094;2023-01-28T12:58:38;25.10;49.00
47174;DHT22;36730;49.036;9.094;2023-01-28T13:01:06;25.10;49.30
47174;DHT22;36730;49.036;9.094;2023-01-28T13:03:34;25.10;49.10
47174;DHT22;36730;49.036;9.094;2023-01-28T13:06:05;25.10;49.30
47174;DHT22;36730;49.036;9.094;2023-01-28T13:08:33;25.10;49.60
47174;DHT22;36730;49.036;9.094;2023-01-28T13:10:59;25.00;49.80
47174;DHT22;36730;49.036;9.094;2023-01-28T13:13:32;25.00;49.80
47174;DHT22;36730;49.036;9.094;2023-01-28T13:15:59;24.90;50.00
47174;DHT22;36730;49.036;9.094;2023-01-28T13:21:13;24.80;49.90
47174;DHT22;36730;49.036;9.094;2023-01-28T13:23:40;24.90;49.30
47174;DHT22;36730;49.036;9.094;2023-01-28T13:28:44;24.80;49.40
47174;DHT22;36730;49.036;9.094;2023-01-28T13:31:10;24.80;49.50
47174;DHT22;36730;49.036;9.094;2023-01-28T13:33:44;24.80;49.20
47174;DHT22;36730;49.036;9.094;2023-01-28T13:38:43;24.80;49.20
47174;DHT22;36730;49.036;9.094;2023-01-28T13:41:09;24.80;49.50
47174;DHT22;36730;49.036;9.094;2023-01-28T13:43:39;24.80;49.50
47174;DHT22;36730;49.036;9.094;2023-01-28T13:46:06;24.70;49.60
47174;DHT22;36730;49.036;9.094;2023-01-28T13:48:34;24.60;49.70
47174;DHT22;36730;49.036;9.094;2023-01-28T13:51:03;24.60;49.90
47174;DHT22;36730;49.036;9.094;2023-01-28T13:59:17;24.50;49.80
47174;DHT22;36730;49.036;9.094;2023-01-28T14:01:58;24.60;49.60
47174;DHT22;36730;49.036;9.094;2023-01-28T14:17:22;24.50;49.70
47174;DHT22;36730;49.036;9.094;2023-01-28T14:19:50;24.40;49.60
47174;DHT22;36730;49.036;9.094;2023-01-28T14:22:20;24.40;49.30
47174;DHT22;36730;49.036;9.094;2023-01-28T14:24:46;24.40;49.60
47174;DHT22;36730;49.036;9.094;2023-01-28T14:27:21;24.30;49.80
47174;DHT22;36730;49.036;9.094;2023-01-28T14:29:53;24.30;49.60
47174;DHT22;36730;49.036;9.094;2023-01-28T14:32:25;24.30;49.50
47174;DHT22;36730;49.036;9.094;2023-01-28T14:34:54;24.30;49.50
47174;DHT22;36730;49.036;9.094;2023-01-28T14:37:21;24.30;49.50
47174;DHT22;36730;49.036;9.094;2023-01-28T14:39:55;24.30;49.30
47174;DHT22;36730;49.036;9.094;2023-01-28T14:42:22;24.30;49.00
47174;DHT22;36730;49.036;9.094;2023-01-28T14:44:53;24.30;48.90
47174;DHT22;36730;49.036;9.094;2023-01-28T14:50:27;24.30;48.90
47174;DHT22;36730;49.036;9.094;2023-01-28T14:58:27;24.20;49.10
47174;DHT22;36730;49.036;9.094;2023-01-28T15:00:55;24.20;49.20
47174;DHT22;36730;49.036;9.094;2023-01-28T15:03:21;24.20;49.40
47174;DHT22;36730;49.036;9.094;2023-01-28T15:05:46;24.20;49.30
47174;DHT22;36730;49.036;9.094;2023-01-28T15:08:19;24.10;49.30
47174;DHT22;36730;49.036;9.094;2023-01-28T15:10:44;24.10;48.80
47174;DHT22;36730;49.036;9.094;2023-01-28T15:13:12;24.10;48.80
47174;DHT22;36730;49.036;9.094;2023-01-28T15:15:39;24.10;48.80
47174;DHT22;36730;49.036;9.094;2023-01-28T15:18:18;24.10;48.90
47174;DHT22;36730;49.036;9.094;2023-01-28T15:20:46;24.10;48.80
47174;DHT22;36730;49.036;9.094;2023-01-28T15:23:17;24.10;48.90
47174;DHT22;36730;49.036;9.094;2023-01-28T15:25:45;24.00;49.30
47174;DHT22;36730;49.036;9.094;2023-01-28T15:28:23;24.10;48.90
47174;DHT22;36730;49.036;9.094;2023-01-28T15:30:49;24.00;48.80
47174;DHT22;36730;49.036;9.094;2023-01-28T15:33:15;24.00;48.90
47174;DHT22;36730;49.036;9.094;2023-01-28T15:35:51;24.00;49.00
47174;DHT22;36730;49.036;9.094;2023-01-28T15:38:17;24.00;48.70
47174;DHT22;36730;49.036;9.094;2023-01-28T15:40:45;24.00;48.70
47174;DHT22;36730;49.036;9.094;2023-01-28T15:43:19;24.00;48.90
47174;DHT22;36730;49.036;9.094;2023-01-28T15:45:46;23.90;48.70
47174;DHT22;36730;49.036;9.094;2023-01-28T15:48:14;24.00;48.50
47174;DHT22;36730;49.036;9.094;2023-01-28T15:50:40;23.90;48.40
47174;DHT22;36730;49.036;9.094;2023-01-28T15:53:12;23.90;48.80
47174;DHT22;36730;49.036;9.094;2023-01-28T15:55:42;23.90;48.50
47174;DHT22;36730;49.036;9.094;2023-01-28T15:58:14;23.90;48.60
47174;DHT22;36730;49.036;9.094;2023-01-28T16:00:41;23.90;48.50
47174;DHT22;36730;49.036;9.094;2023-01-28T16:03:09;23.90;48.70
47174;DHT22;36730;49.036;9.094;2023-01-28T16:05:41;23.90;48.70
47174;DHT22;36730;49.036;9.094;2023-01-28T16:08:26;23.90;48.70
47174;DHT22;36730;49.036;9.094;2023-01-28T16:10:53;23.90;48.70
47174;DHT22;36730;49.036;9.094;2023-01-28T16:13:23;23.90;49.20
47174;DHT22;36730;49.036;9.094;2023-01-28T16:15:50;23.80;48.40
47174;DHT22;36730;49.036;9.094;2023-01-28T16:18:59;23.90;48.70
47174;DHT22;36730;49.036;9.094;2023-01-28T16:21:06;23.90;48.50
47174;DHT22;36730;49.036;9.094;2023-01-28T16:23:33;23.80;48.90
47174;DHT22;36730;49.036;9.094;2023-01-28T16:25:59;23.80;48.80
47174;DHT22;36730;49.036;9.094;2023-01-28T16:28:25;23.90;48.60
47174;DHT22;36730;49.036;9.094;2023-01-28T16:30:51;23.90;48.70
47174;DHT22;36730;49.036;9.094;2023-01-28T16:33:17;23.80;48.40
47174;DHT22;36730;49.036;9.094;2023-01-28T16:35:43;23.80;48.40
47174;DHT22;36730;49.036;9.094;2023-01-28T16:38:08;23.80;48.40
47174;DHT22;36730;49.036;9.094;2023-01-28T16:40:34;23.80;48.40
47174;DHT22;36730;49.036;9.094;2023-01-28T16:43:02;23.80;48.70
47174;DHT22;36730;49.036;9.094;2023-01-28T16:45:28;23.80;48.70
47174;DHT22;36730;49.036;9.094;2023-01-28T16:47:53;23.80;48.70
47174;DHT22;36730;49.036;9.094;2023-01-28T16:50:19;23.80;48.60
47174;DHT22;36730;49.036;9.094;2023-01-28T16:52:46;23.80;48.50
47174;DHT22;36730;49.036;9.094;2023-01-28T16:55:13;23.80;48.80
47174;DHT22;36730;49.036;9.094;2023-01-28T16:57:39;23.80;48.40
47174;DHT22;36730;49.036;9.094;2023-01-28T17:00:05;23.80;47.80
47174;DHT22;36730;49.036;9.094;2023-01-28T17:02:30;23.80;48.00
47174;DHT22;36730;49.036;9.094;2023-01-28T17:04:56;23.80;47.80
47174;DHT22;36730;49.036;9.094;2023-01-28T17:07:21;23.80;47.80
47174;DHT22;36730;49.036;9.094;2023-01-28T17:09:47;23.80;47.60
47174;DHT22;36730;49.036;9.094;2023-01-28T17:12:12;23.80;47.90
47174;DHT22;36730;49.036;9.094;2023-01-28T17:14:38;23.80;47.90
47174;DHT22;36730;49.036;9.094;2023-01-28T17:17:04;23.80;47.60
47174;DHT22;36730;49.036;9.094;2023-01-28T17:19:29;23.80;47.50
47174;DHT22;36730;49.036;9.094;2023-01-28T17:21:56;23.80;47.60
47174;DHT22;36730;49.036;9.094;2023-01-28T17:24:22;23.80;47.50
47174;DHT22;36730;49.036;9.094;2023-01-28T17:26:50;23.80;47.50
47174;DHT22;36730;49.036;9.094;2023-01-28T17:29:15;23.80;47.50